SÍGUENOS

APP INUMET

Disponible en Google Play

Productos aeronáuticos

  • SIGMET
  • METAR / SPECI
  • TAF
  • AIREP
  • Aviso de aeródromo
  • Pronárea
  • Carta superficie
Fecha : 17/10/2017
FTUY 02 SUMU 17 05 15
SUMU TAF 170515Z 1706/1806 01010KT 9999 FEW020 BKN070 TX23/1718Z TN15/1710Z TEMPO 1706/1718 6000 RA BKN018 OVC060 PROB40 TEMPO 1706/1718 TS FEW040CB=
SULS TAF 170515Z 1706/1806 01010KT 9999 FEW020 BKN070 TX23/1718Z TN15/1710Z TEMPO 1706/1718 6000 RA BKN018 OVC060 PROB40 TEMPO 1706/1718 TS FEW040CB=
SUAA TAF 170515Z 1706/1806 01010KT 9999 FEW020 BKN070 TX23/1718Z TN15/1710Z TEMPO 1706/1718 6000 RA BKN018 OVC060 PROB40 TEMPO 1706/1718 TS FEW040CB=
SUCA TAF 170515Z 1706/1806 01010KT 9999 FEW020 BKN070 TX23/1718Z TN15/1710Z TEMPO 1706/1718 6000 RA BKN018 OVC060 PROB40 TEMPO 1706/1718 TS FEW040CB=
SUDU TAF 170515Z 1706/1806 06008KT 9999 FEW018 BKN070 TX25/1718Z TN15/1710Z TEMPO 1706/1718 5000 RA BKN015 OVC060 TEMPO 1706/1718 TS FEW040CB=
SUSO TAF 170515Z 1706/1806 06008KT 9999 FEW018 BKN070 TX25/1718Z TN15/1710Z TEMPO 1706/1718 5000 RA BKN015 OVC060 TEMPO 1706/1718 TS FEW040CB=
SURV TAF 170515Z 1706/1806 06008KT 9999 FEW018 BKN070 TX25/1718Z TN15/1710Z TEMPO 1706/1718 5000 RA BKN015 OVC060 TEMPO 1706/1718 TS FEW040CB=

Predictor : Ramón Alvariño


Mensajes TAF vigentes - Internacionales


Argentina
TAF SACO 061700Z 0618/0718 11005KT CAVOK TX24/0718Z TN12/0712Z BECMG 0703/0706 32005KT PROB30 TEMPO 0715/0718 36015KT
TAF SAME 061700Z 0618/0718 14010KT CAVOK TX26/0620Z TN12/0710Z
TAF SAEZ 061700Z 0618/0718 22012KT CAVOK TX23/0619Z TN11/0710Z BECMG 0622/0624 12010KT BECMG 0709/0711 09008KT
TAF SABE 061700Z 0618/0718 22010KT CAVOK TX24/0619Z TN13/0710Z BECMG 0622/0624 18010KT BECMG 0703/0705 09015KT
TAF SAAR 061700Z 0618/0718 16020KT CAVOK TX24/0618Z TN10/0710Z BECMG 0622/0624 14005KT BECMG 0706/0708 09010KT
Bolivia
TAF SLLP 061600Z 0618/0718 12010KT 9999 FEW020 FEW023CB TX20/0620Z TN00/0710Z BECMG 0623/0701 07005KT NSC PROB30 TEMPO 0707/0710 3000E VCFG FEW002
Brasil
TAF SBGR 061610Z 0618/0724 16007KT 9999 SCT035 TX33/0618Z TN16/0709Z BECMG 0620/0622 SCT017 BECMG 0700/0702 08005KT CAVOK BECMG 0706/0708 16007KT 8000 BKN008 PROB30 0708/0711 4000 RA BR SCT003 BKN006 BECMG 0711/0713 9999 BKN015 BECMG 0714/0716 BKN030 BECMG 0720/0722 8000 BKN008 RMK PGG
TAF SBSP 061610Z 0618/0718 18010KT 9999 SCT030 TX31/0618Z TN16/0709Z BECMG 0620/0622 9000 BKN010 BECMG 0705/0707 5000 RADZ BR SCT004 BKN007 FM071100 15005KT 9999 BKN015 BECMG 0714/0716 BKN025 RMK PGG
TAF SBBR 061600Z 0618/0718 09010KT 9999 FEW030 TX32/0619Z TN18/0709Z FM062100 08008KT CAVOK RMK PDF
TAF SBPA 061530Z 0618/0718 33007KT 9999 BKN025 TX24/0618Z TN17/0709Z BECMG 0622/0624 17008KT 8000 SCT007 BKN013 PROB40 TEMPO 0700/0712 4000 RA BR BKN004 BKN007 RMK PEB
TAF SBFI 061530Z 0618/0718 19008KT 9999 SCT030 TX34/0618Z TN17/0709Z PROB40 0618/0622 BKN025 FEW035TCU BECMG 0622/0624 11006KT PROB30 TEMPO 0700 /0712 15010KT 8000 RA BKN010 OVC020 RMK PEB
TAF SBFL 061530Z 0618/0718 01011KT CAVOK TX30/0618Z TN18/0709Z BECMG 0618/0620 06007KT 9999 SCT025 FEW030TCU PROB30 TEMPO 0620/0703 7000 TSRA BKN02 0 FEW030CB BECMG 0703/0705 34005KT BKN015 PROB40 TEMPO 0707/0716 7000 RA BKN014 RMK PEB
TAF SBRJ 060900Z 0612/0624 36005KT 9999 FEW020 TX30/0616Z TN24/0624Z BECMG 0614/0616 16010KT RMK PHD
Chile
TAF SCCI 061637Z 0618/0718 27028G38KT 9999 SCT030 TX10/0618Z TN05/0710Z TEMPO 0619/0700 28035G45KT BECMG 0700/0702 28020G30KT TEMPO 0700/0703 28030G40KT BECMG 0703/0705 32018G30KT BECMG 0711/0713 29020G30KT
TAF SCEL 061626Z 0618/0718 VRB02KT CAVOK TX25/0619Z TN08/0710Z BECMG 0619/0621 20008KT BECMG 0702/0704 15004KT BECMG 0706/0708 VRB03KT 7000 NSC BECMG 0714/0716 19006KT CAVOK
Ecuador
SEQM 061638Z 0618/0718 36012KT 9999 SCT033 BKN090 FM070000 03003KT 9999 SCT010 BKN020 FM070700 00000KT 6000 BCFG SCT007 BKN015 FM071200 VRB03KT 9999 SCT030 TX23/0619Z TN09/0711Z
EEUU
KMIA 061739Z 0618/0718 11010KT P6SM VCTS SCT020CB BKN050 BKN250 TEMPO 0618/0621 VRB15KT 3SM TSRA BKN025CB OVC050 FM070000 12007KT P6SM FEW030 SCT080 BKN250 FM071200 12010KT P6SM FEW050 SCT250 FM071500 13012G22KT P6SM VCSH SCT020 BKN050
KIAD 061724Z 0618/0724 VRB03KT P6SM FEW050 SCT120 BKN180 FM070800 18004KT 5SM BR SCT200 FM071300 19005KT P6SM SCT200 FM071800 19010KT P6SM SCT040
KDCA 061724Z 0618/0718 16004KT P6SM FEW045 BKN250 FM071600 19008KT P6SM SCT200 FM071700 19009KT P6SM SCT035
KJFK 061720Z 0618/0724 21008KT P6SM FEW050 SCT250 FM062000 19009KT P6SM FEW050 SCT250 FM070300 22005KT P6SM FEW050 BKN150 FM071200 19005KT P6SM BKN150 FM071600 18009KT P6SM FEW050 BKN150
KLGA 061720Z 0618/0718 26007KT P6SM FEW050 SCT250 FM062100 18008KT P6SM FEW050 SCT250 FM070200 21004KT P6SM FEW050 BKN150 FM071200 17004KT P6SM BKN150 FM071500 18008KT P6SM FEW050 BKN150
Francia
TAF LFPO 061700Z 0618/0724 34005KT CAVOK BECMG 0623/0701 VRB03KT PROB30 TEMPO 0703/0707 3000 BR NSC BECMG 0707/0710 24010KT BECMG 0716/0718 BKN030 TEMPO 0720/0724 -RA BKN012
Paraguay
TAF SGAS 061651Z 0618/0718 35007KT 9999 SCT033 TX37/0619Z TN19/0710Z PROB30 0622/0701 6000 TSRA BKN020 FEW040CB BECMG 0704/0706 VRB05KT 9999 BKN027 PROB40 0708/0711 23015KT 3000 TSRA OVC010 FEW040CB BECMG 0713/0716 18012KT 6000 RA OVC010
Venezuela
TAF SVMI 061600Z 0618/0718 03015KT 9999 SCT016 BKN070 TX32/18Z TN23/10Z BECMG 0618/0622 27011KT 9000 DZ BKN020

* Datos extraidos del Text DataServer de la NOAA (NOAA TEXT DATA SERVER)

Instituto Uruguayo de Meteorología

Dr. Javier Barrios Amorín 1488 - CP 11200
Mesa Central (598) 1895 - Desde el interior 21895

Montevideo - Uruguay